createdAt,value
2022-12-31T00:01:46.763Z,12.10
2022-12-31T00:04:13.776Z,12.07
2022-12-31T00:06:40.692Z,12.06
2022-12-31T00:09:08.962Z,12.02
2022-12-31T00:11:37.493Z,12.10
2022-12-31T00:14:05.386Z,12.08
2022-12-31T00:16:37.286Z,12.07
2022-12-31T00:19:08.879Z,12.09
2022-12-31T00:21:37.597Z,12.09
2022-12-31T00:24:06.789Z,12.09
2022-12-31T00:26:35.728Z,12.07
2022-12-31T00:29:03.820Z,12.11
2022-12-31T00:31:37.332Z,12.12
2022-12-31T00:34:05.621Z,12.10
2022-12-31T00:36:38.486Z,12.10
2022-12-31T00:39:08.456Z,12.14
2022-12-31T00:41:35.535Z,12.17
2022-12-31T00:44:03.224Z,12.23
2022-12-31T00:46:31.779Z,12.24
2022-12-31T00:48:58.967Z,12.26
2022-12-31T00:51:27.763Z,12.31
2022-12-31T00:53:56.746Z,12.31
2022-12-31T00:56:28.675Z,12.33
2022-12-31T00:58:56.422Z,12.34
2022-12-31T01:01:33.321Z,12.37
2022-12-31T01:04:13.650Z,12.40
2022-12-31T01:06:42.049Z,12.49
2022-12-31T01:09:10.188Z,12.48
2022-12-31T01:11:37.190Z,12.52
2022-12-31T01:14:15.389Z,12.59
2022-12-31T01:16:51.968Z,12.58
2022-12-31T01:19:28.127Z,12.59
2022-12-31T01:21:56.467Z,12.56
2022-12-31T01:24:24.059Z,12.54
2022-12-31T01:26:51.949Z,12.59
2022-12-31T01:29:19.432Z,12.67
2022-12-31T01:31:46.872Z,12.62
2022-12-31T01:34:14.000Z,12.63
2022-12-31T01:36:41.020Z,12.66
2022-12-31T01:39:09.248Z,12.72
2022-12-31T01:41:40.500Z,12.65
2022-12-31T01:44:13.251Z,12.73
2022-12-31T01:46:52.565Z,12.72
2022-12-31T01:49:41.319Z,13.03
2022-12-31T01:52:12.968Z,13.02
2022-12-31T01:54:46.952Z,12.99
2022-12-31T01:57:15.947Z,13.50
2022-12-31T01:59:44.757Z,14.14
2022-12-31T02:02:13.960Z,13.49
2022-12-31T02:04:41.009Z,13.13
2022-12-31T02:07:16.095Z,13.08
2022-12-31T02:09:43.810Z,13.31
2022-12-31T02:12:11.654Z,13.27
2022-12-31T02:14:44.000Z,13.16
2022-12-31T02:17:25.521Z,13.20
2022-12-31T02:20:32.251Z,13.06
2022-12-31T02:23:22.679Z,13.05
2022-12-31T02:26:23.091Z,13.08
2022-12-31T02:29:12.367Z,13.24
2022-12-31T02:32:15.717Z,13.22
2022-12-31T02:34:57.651Z,13.57
2022-12-31T02:37:27.315Z,14.03
2022-12-31T02:39:54.635Z,13.93
2022-12-31T02:42:21.584Z,13.88
2022-12-31T02:44:48.591Z,13.78
2022-12-31T02:47:35.313Z,13.55
2022-12-31T02:51:02.651Z,13.55
2022-12-31T02:54:05.250Z,13.85
2022-12-31T02:56:49.215Z,13.94
2022-12-31T02:59:59.479Z,14.06
2022-12-31T03:02:28.867Z,13.99
2022-12-31T03:04:57.662Z,14.29
2022-12-31T03:07:28.482Z,14.10
2022-12-31T03:09:55.784Z,14.16
2022-12-31T03:12:48.821Z,14.06
2022-12-31T03:15:31.899Z,14.21
2022-12-31T03:18:09.355Z,14.27
2022-12-31T03:21:04.649Z,14.30
2022-12-31T03:23:38.909Z,14.27
2022-12-31T03:26:11.816Z,14.24
2022-12-31T03:28:41.442Z,14.25
2022-12-31T03:31:08.883Z,14.35
2022-12-31T03:33:40.223Z,14.03
2022-12-31T03:36:14.073Z,13.88
2022-12-31T03:38:41.584Z,13.83
2022-12-31T03:41:11.457Z,14.06
2022-12-31T03:43:38.988Z,14.36
2022-12-31T03:46:06.157Z,14.15
2022-12-31T03:48:33.259Z,13.98
2022-12-31T03:51:00.329Z,13.93
2022-12-31T03:53:28.269Z,14.52
2022-12-31T03:55:55.681Z,14.55
2022-12-31T03:58:23.063Z,14.56
2022-12-31T04:00:50.564Z,14.67
2022-12-31T04:03:17.655Z,14.44
2022-12-31T04:05:44.659Z,14.17
2022-12-31T04:08:11.603Z,14.66
2022-12-31T04:10:38.608Z,14.84
2022-12-31T04:13:05.615Z,14.80
2022-12-31T04:15:32.673Z,14.84
2022-12-31T04:17:59.626Z,15.37
2022-12-31T04:20:26.603Z,15.29
2022-12-31T04:22:53.690Z,15.27
2022-12-31T04:25:20.728Z,15.33
2022-12-31T04:27:47.663Z,15.19
2022-12-31T04:30:14.729Z,15.23
2022-12-31T04:32:41.940Z,14.96
2022-12-31T04:35:10.549Z,14.90
2022-12-31T04:37:37.606Z,14.89
2022-12-31T04:40:06.809Z,14.76
2022-12-31T04:42:35.338Z,14.87
2022-12-31T04:45:02.371Z,14.76
2022-12-31T04:47:29.416Z,14.96
2022-12-31T04:49:56.516Z,14.88
2022-12-31T04:52:23.585Z,14.83
2022-12-31T04:54:50.670Z,15.03
2022-12-31T04:57:17.701Z,15.04
2022-12-31T04:59:44.664Z,15.28
2022-12-31T05:02:11.822Z,15.33
2022-12-31T05:04:38.936Z,15.41
2022-12-31T05:07:05.971Z,15.52
2022-12-31T05:09:32.885Z,15.47
2022-12-31T05:11:59.869Z,15.45
2022-12-31T05:14:26.895Z,15.23
2022-12-31T05:16:54.596Z,15.55
2022-12-31T05:19:21.694Z,15.74
2022-12-31T05:22:08.593Z,15.78
2022-12-31T05:24:35.882Z,15.80
2022-12-31T05:27:03.280Z,15.91
2022-12-31T05:29:30.261Z,15.60
2022-12-31T05:31:57.224Z,16.05
2022-12-31T05:34:24.181Z,15.74
2022-12-31T05:36:52.027Z,15.30
2022-12-31T05:39:19.015Z,15.16
2022-12-31T05:41:45.993Z,15.30
2022-12-31T05:44:13.110Z,15.01
2022-12-31T05:46:40.177Z,15.03
2022-12-31T05:49:07.130Z,15.58
2022-12-31T05:51:34.183Z,15.75
2022-12-31T05:54:01.157Z,15.47
2022-12-31T05:56:28.219Z,15.28
2022-12-31T05:58:55.258Z,15.53
2022-12-31T06:01:22.421Z,15.83
2022-12-31T06:03:49.458Z,15.76
2022-12-31T06:06:16.533Z,15.49
2022-12-31T06:08:43.443Z,15.33
2022-12-31T06:11:10.366Z,15.41
2022-12-31T06:13:37.285Z,15.14
2022-12-31T06:16:08.875Z,15.11
2022-12-31T06:18:36.017Z,15.21
2022-12-31T06:21:04.142Z,15.72
2022-12-31T06:23:31.379Z,15.58
2022-12-31T06:26:03.662Z,15.64
2022-12-31T06:28:30.907Z,15.60
2022-12-31T06:31:06.282Z,15.38
2022-12-31T06:33:35.077Z,15.67
2022-12-31T06:36:07.101Z,15.53
2022-12-31T06:38:38.024Z,15.54
2022-12-31T06:41:07.175Z,15.46
2022-12-31T06:43:38.012Z,15.41
2022-12-31T06:46:08.363Z,15.32
2022-12-31T06:48:35.870Z,15.08
2022-12-31T06:51:16.926Z,15.13
2022-12-31T06:53:46.246Z,15.40
2022-12-31T06:56:31.302Z,15.43
2022-12-31T06:59:00.826Z,15.42
2022-12-31T07:01:39.656Z,15.54
2022-12-31T07:04:30.813Z,15.35
2022-12-31T07:07:08.988Z,15.37
2022-12-31T07:09:54.973Z,15.34
2022-12-31T07:12:36.922Z,14.82
2022-12-31T07:15:36.948Z,14.72
2022-12-31T07:18:23.426Z,14.79
2022-12-31T07:20:51.086Z,14.67
2022-12-31T07:23:18.468Z,14.64
2022-12-31T07:26:03.921Z,14.53
2022-12-31T07:29:12.197Z,14.40
2022-12-31T07:31:47.832Z,14.40
2022-12-31T07:34:37.470Z,14.36
2022-12-31T07:37:23.406Z,14.31
2022-12-31T07:40:15.604Z,14.21
2022-12-31T07:42:52.979Z,14.24
2022-12-31T07:45:29.284Z,14.30
2022-12-31T07:48:02.291Z,14.39
2022-12-31T07:50:30.447Z,14.39
2022-12-31T07:52:57.963Z,14.33
2022-12-31T07:55:24.893Z,14.29
2022-12-31T07:58:30.769Z,14.41
2022-12-31T08:00:59.159Z,14.59
2022-12-31T08:04:16.114Z,14.50
2022-12-31T08:07:09.018Z,14.47
2022-12-31T08:10:06.193Z,14.30
2022-12-31T08:12:36.242Z,14.33
2022-12-31T08:15:06.698Z,14.26
2022-12-31T08:17:34.019Z,14.22
2022-12-31T08:20:01.791Z,14.23
2022-12-31T08:22:55.905Z,14.30
2022-12-31T08:25:27.420Z,14.41
2022-12-31T08:28:50.558Z,14.42
2022-12-31T08:31:32.513Z,14.40
2022-12-31T08:34:14.925Z,14.48
2022-12-31T08:37:10.915Z,14.59
2022-12-31T08:40:05.738Z,14.58
2022-12-31T08:43:11.864Z,14.76
2022-12-31T08:45:47.678Z,14.89
2022-12-31T08:48:30.088Z,15.00
2022-12-31T08:50:57.635Z,14.85
2022-12-31T08:53:26.209Z,14.86
2022-12-31T08:56:01.974Z,14.83
2022-12-31T08:59:14.121Z,14.83
2022-12-31T09:02:20.440Z,14.74
2022-12-31T09:05:32.855Z,14.79
2022-12-31T09:08:27.697Z,14.87
2022-12-31T09:11:07.864Z,14.86
2022-12-31T09:13:52.078Z,14.87
2022-12-31T09:16:31.187Z,14.89
2022-12-31T09:19:05.249Z,14.80
2022-12-31T09:21:49.467Z,15.21
2022-12-31T09:24:17.280Z,15.67
2022-12-31T09:27:09.727Z,15.64
2022-12-31T09:29:45.263Z,15.59
2022-12-31T09:32:36.113Z,15.89
2022-12-31T09:35:27.128Z,15.93
2022-12-31T09:38:31.034Z,15.80
2022-12-31T09:41:16.237Z,15.92
2022-12-31T09:44:01.689Z,15.99
2022-12-31T09:46:43.711Z,16.03
2022-12-31T09:49:47.237Z,15.93
2022-12-31T09:52:53.151Z,16.09
2022-12-31T09:55:44.851Z,16.11
2022-12-31T09:58:26.289Z,16.18
2022-12-31T10:01:07.998Z,16.10
2022-12-31T10:04:04.222Z,16.16
2022-12-31T10:07:20.743Z,16.21
2022-12-31T10:10:31.180Z,16.47
2022-12-31T10:13:30.525Z,16.23
2022-12-31T10:16:20.726Z,16.09
2022-12-31T10:19:39.736Z,16.04
2022-12-31T10:22:35.029Z,16.05
2022-12-31T10:26:02.498Z,15.86
2022-12-31T10:28:56.451Z,15.80
2022-12-31T10:31:50.596Z,15.78
2022-12-31T10:34:43.932Z,15.91
2022-12-31T10:37:20.893Z,16.04
2022-12-31T10:40:35.214Z,16.30
2022-12-31T10:43:45.228Z,16.27
2022-12-31T10:46:58.115Z,16.43
2022-12-31T10:50:01.839Z,16.49
2022-12-31T10:52:56.460Z,16.53
2022-12-31T10:56:29.728Z,16.66
2022-12-31T10:59:54.168Z,16.81
2022-12-31T11:02:42.572Z,16.87
2022-12-31T11:05:59.304Z,17.05
2022-12-31T11:08:44.596Z,17.00
2022-12-31T11:11:38.011Z,17.20
2022-12-31T11:14:56.375Z,17.00
2022-12-31T11:17:56.619Z,16.89
2022-12-31T11:20:50.359Z,16.86
2022-12-31T11:23:52.926Z,16.87
2022-12-31T11:27:11.726Z,16.82
2022-12-31T11:30:18.625Z,16.87
2022-12-31T11:33:01.122Z,16.87
2022-12-31T11:35:52.528Z,16.89
2022-12-31T11:38:29.956Z,16.89
2022-12-31T11:41:19.696Z,17.17
2022-12-31T11:44:20.999Z,17.25
2022-12-31T11:47:32.585Z,17.36
2022-12-31T11:50:49.829Z,17.42
2022-12-31T11:53:57.908Z,17.57
2022-12-31T11:56:32.433Z,17.54
2022-12-31T11:59:04.774Z,17.51
2022-12-31T12:01:52.732Z,17.72
2022-12-31T12:04:19.867Z,17.84
2022-12-31T12:06:46.871Z,18.00
2022-12-31T12:09:28.099Z,18.37
2022-12-31T12:12:06.257Z,18.63
2022-12-31T12:14:41.054Z,18.39
2022-12-31T12:17:16.405Z,18.29
2022-12-31T12:19:47.877Z,18.31
2022-12-31T12:22:23.169Z,18.33
2022-12-31T12:25:02.823Z,18.30
2022-12-31T12:27:33.479Z,18.59
2022-12-31T12:30:12.568Z,18.44
2022-12-31T12:32:39.571Z,18.30
2022-12-31T12:35:23.912Z,18.44
2022-12-31T12:38:01.275Z,18.38
2022-12-31T12:40:33.818Z,18.52
2022-12-31T12:43:02.085Z,18.39
2022-12-31T12:45:51.407Z,18.49
2022-12-31T12:48:42.154Z,18.47
2022-12-31T12:51:34.322Z,18.49
2022-12-31T12:54:37.037Z,18.27
2022-12-31T12:57:25.162Z,18.21
2022-12-31T13:00:04.563Z,18.33
2022-12-31T13:03:24.819Z,18.26
2022-12-31T13:06:06.685Z,18.28
2022-12-31T13:09:04.276Z,18.26
2022-12-31T13:11:50.052Z,18.28
2022-12-31T13:14:32.060Z,18.22
2022-12-31T13:17:26.528Z,18.15
2022-12-31T13:20:13.067Z,18.04
2022-12-31T13:22:48.619Z,17.99
2022-12-31T13:26:06.490Z,17.84
2022-12-31T13:28:35.762Z,17.73
2022-12-31T13:31:37.366Z,17.61
2022-12-31T13:34:17.439Z,17.57
2022-12-31T13:36:48.334Z,17.42
2022-12-31T13:39:33.904Z,17.35
2022-12-31T13:42:30.411Z,17.30
2022-12-31T13:45:11.926Z,17.22
2022-12-31T13:47:52.639Z,17.17
2022-12-31T13:50:32.545Z,17.03
2022-12-31T13:53:12.449Z,17.01
2022-12-31T13:55:57.975Z,17.03
2022-12-31T13:58:42.367Z,17.03
2022-12-31T14:01:35.278Z,17.04
2022-12-31T14:04:16.335Z,17.00
2022-12-31T14:07:07.789Z,16.99
2022-12-31T14:09:35.793Z,17.00
2022-12-31T14:12:39.518Z,16.94
2022-12-31T14:15:33.955Z,16.85
2022-12-31T14:18:24.279Z,16.83
2022-12-31T14:21:07.855Z,16.71
2022-12-31T14:23:56.891Z,16.72
2022-12-31T14:26:36.248Z,16.70
2022-12-31T14:29:13.706Z,16.69
2022-12-31T14:31:51.933Z,16.73
2022-12-31T14:34:36.810Z,16.67
2022-12-31T14:37:41.988Z,16.66
2022-12-31T14:40:15.378Z,16.51
2022-12-31T14:43:16.437Z,16.48
2022-12-31T14:45:50.154Z,16.43
2022-12-31T14:48:22.950Z,16.35
2022-12-31T14:50:50.236Z,16.26
2022-12-31T14:53:27.300Z,16.21
2022-12-31T14:56:05.746Z,16.26
2022-12-31T14:58:43.703Z,16.17
2022-12-31T15:01:17.557Z,15.98
2022-12-31T15:03:46.398Z,15.96
2022-12-31T15:07:05.842Z,15.90
2022-12-31T15:10:10.397Z,15.90
2022-12-31T15:13:14.230Z,15.75
2022-12-31T15:16:26.261Z,15.74
2022-12-31T15:19:20.362Z,15.80
2022-12-31T15:22:26.011Z,15.77
2022-12-31T15:24:53.160Z,15.66
2022-12-31T15:27:38.658Z,15.48
2022-12-31T15:30:07.467Z,15.47
2022-12-31T15:32:42.149Z,15.41
2022-12-31T15:35:21.259Z,15.55
2022-12-31T15:38:38.239Z,15.46
2022-12-31T15:41:20.446Z,15.30
2022-12-31T15:44:16.169Z,15.42
2022-12-31T15:46:44.068Z,15.49
2022-12-31T15:49:16.889Z,15.42
2022-12-31T15:52:07.686Z,15.31
2022-12-31T15:54:42.923Z,15.35
2022-12-31T15:57:38.358Z,15.32
2022-12-31T16:00:22.132Z,15.34
2022-12-31T16:02:54.030Z,15.26
2022-12-31T16:05:27.025Z,15.17
2022-12-31T16:07:59.721Z,15.18
2022-12-31T16:10:32.660Z,15.15
2022-12-31T16:13:01.068Z,14.87
2022-12-31T16:15:32.414Z,14.96
2022-12-31T16:18:18.901Z,15.05
2022-12-31T16:20:51.862Z,15.05
2022-12-31T16:23:26.290Z,15.08
2022-12-31T16:26:01.279Z,15.02
2022-12-31T16:28:34.481Z,14.86
2022-12-31T16:31:09.007Z,14.85
2022-12-31T16:33:36.097Z,14.95
2022-12-31T16:36:03.527Z,14.98
2022-12-31T16:38:38.153Z,14.95
2022-12-31T16:41:17.001Z,14.86
2022-12-31T16:43:46.941Z,15.04
2022-12-31T16:46:27.445Z,15.01
2022-12-31T16:49:15.988Z,15.24
2022-12-31T16:51:43.772Z,15.33
2022-12-31T16:54:26.507Z,15.34
2022-12-31T16:56:54.186Z,15.11
2022-12-31T16:59:35.828Z,15.10
2022-12-31T17:02:12.335Z,15.15
2022-12-31T17:04:45.186Z,15.13
2022-12-31T17:07:30.359Z,15.13
2022-12-31T17:10:09.354Z,15.04
2022-12-31T17:13:17.557Z,15.05
2022-12-31T17:15:41.916Z,15.17
2022-12-31T17:18:25.317Z,15.09
2022-12-31T17:20:54.999Z,15.13
2022-12-31T17:23:33.262Z,14.91
2022-12-31T17:26:13.429Z,14.90
2022-12-31T17:28:52.405Z,14.95
2022-12-31T17:31:41.227Z,14.87
2022-12-31T17:34:14.425Z,14.92
2022-12-31T17:36:54.680Z,14.78
2022-12-31T17:39:23.927Z,14.68
2022-12-31T17:41:53.270Z,14.48
2022-12-31T17:44:24.359Z,14.53
2022-12-31T17:47:01.571Z,14.50
2022-12-31T17:49:31.457Z,14.41
2022-12-31T17:52:04.942Z,14.48
2022-12-31T17:54:41.323Z,14.45
2022-12-31T17:57:24.394Z,14.55
2022-12-31T17:59:51.679Z,14.67
2022-12-31T18:02:19.232Z,14.61
2022-12-31T18:04:46.535Z,14.72
2022-12-31T18:07:13.597Z,14.69
2022-12-31T18:09:40.698Z,14.53
2022-12-31T18:12:08.236Z,14.68
2022-12-31T18:14:35.337Z,14.68
2022-12-31T18:17:02.447Z,14.61
2022-12-31T18:20:02.790Z,14.52
2022-12-31T18:22:16.943Z,14.59
2022-12-31T18:24:44.683Z,14.41
2022-12-31T18:27:17.801Z,14.57
2022-12-31T18:29:45.632Z,14.34
2022-12-31T18:32:33.138Z,14.32
2022-12-31T18:35:00.273Z,14.38
2022-12-31T18:37:29.277Z,14.47
2022-12-31T18:39:56.259Z,14.45
2022-12-31T18:42:26.259Z,14.52
2022-12-31T18:44:53.324Z,14.44
2022-12-31T18:47:23.431Z,14.58
2022-12-31T18:49:51.193Z,14.61
2022-12-31T18:52:21.842Z,14.50
2022-12-31T18:54:49.684Z,14.50
2022-12-31T18:57:18.023Z,14.52
2022-12-31T18:59:45.195Z,14.63
2022-12-31T19:02:18.696Z,14.51
2022-12-31T19:04:47.455Z,14.55
2022-12-31T19:07:14.569Z,14.49
2022-12-31T19:09:46.001Z,14.48
2022-12-31T19:12:15.099Z,14.48
2022-12-31T19:14:42.490Z,14.50
2022-12-31T19:17:12.570Z,14.54
2022-12-31T19:19:39.666Z,14.56
2022-12-31T19:22:06.635Z,14.48
2022-12-31T19:24:33.600Z,14.43
2022-12-31T19:27:02.080Z,14.52
2022-12-31T19:29:30.359Z,14.47
2022-12-31T19:32:00.763Z,14.50
2022-12-31T19:34:27.870Z,14.45
2022-12-31T19:36:54.995Z,14.45
2022-12-31T19:39:22.173Z,14.56
2022-12-31T19:41:56.632Z,14.61
2022-12-31T19:44:26.620Z,14.79
2022-12-31T19:46:53.627Z,14.70
2022-12-31T19:49:20.727Z,14.73
2022-12-31T19:51:47.766Z,14.67
2022-12-31T19:54:14.746Z,14.78
2022-12-31T19:56:41.839Z,14.76
2022-12-31T19:59:10.721Z,14.65
2022-12-31T20:01:38.469Z,14.47
2022-12-31T20:04:05.838Z,14.46
2022-12-31T20:06:33.001Z,14.39
2022-12-31T20:08:59.993Z,14.31
2022-12-31T20:11:27.127Z,14.05
2022-12-31T20:13:54.275Z,13.96
2022-12-31T20:16:24.732Z,13.88
2022-12-31T20:18:52.296Z,13.85
2022-12-31T20:21:23.484Z,13.94
2022-12-31T20:23:52.619Z,13.86
2022-12-31T20:26:22.043Z,13.74
2022-12-31T20:28:49.313Z,13.59
2022-12-31T20:31:19.995Z,13.63
2022-12-31T20:33:47.524Z,13.64
2022-12-31T20:36:16.505Z,13.82
2022-12-31T20:38:44.370Z,13.56
2022-12-31T20:41:18.586Z,13.62
2022-12-31T20:43:46.377Z,13.56
2022-12-31T20:46:21.639Z,13.78
2022-12-31T20:48:51.003Z,13.68
2022-12-31T20:51:20.259Z,13.91
2022-12-31T20:53:51.989Z,14.07
2022-12-31T20:56:57.233Z,13.92
2022-12-31T20:59:24.312Z,13.94
2022-12-31T21:02:19.911Z,13.90
2022-12-31T21:04:38.768Z,13.98
2022-12-31T21:07:05.994Z,14.09
2022-12-31T21:09:33.055Z,13.96
2022-12-31T21:12:19.432Z,14.05
2022-12-31T21:14:46.590Z,14.20
2022-12-31T21:17:13.664Z,14.08
2022-12-31T21:19:41.809Z,14.13
2022-12-31T21:22:09.101Z,13.97
2022-12-31T21:24:36.123Z,13.90
2022-12-31T21:27:03.252Z,13.96
2022-12-31T21:29:34.597Z,13.99
2022-12-31T21:32:02.864Z,13.66
2022-12-31T21:34:31.310Z,13.38
2022-12-31T21:36:58.339Z,13.21
2022-12-31T21:39:25.390Z,13.11
2022-12-31T21:41:52.499Z,12.98
2022-12-31T21:44:24.315Z,12.93
2022-12-31T21:47:39.773Z,12.84
2022-12-31T21:50:08.700Z,12.87
2022-12-31T21:52:35.750Z,12.85
2022-12-31T21:55:24.179Z,12.81
2022-12-31T21:58:24.724Z,12.68
2022-12-31T22:00:58.451Z,12.49
2022-12-31T22:03:27.634Z,12.41
2022-12-31T22:06:03.062Z,12.39
2022-12-31T22:08:31.326Z,12.29
2022-12-31T22:10:58.388Z,12.28
2022-12-31T22:13:25.557Z,12.36
2022-12-31T22:16:04.316Z,12.46
2022-12-31T22:18:35.743Z,12.63
2022-12-31T22:21:18.440Z,12.75
2022-12-31T22:23:52.990Z,12.96
2022-12-31T22:26:26.696Z,12.86
2022-12-31T22:28:59.124Z,12.74
2022-12-31T22:31:30.052Z,12.53
2022-12-31T22:33:58.782Z,12.55
2022-12-31T22:36:26.600Z,12.57
2022-12-31T22:38:58.354Z,12.78
2022-12-31T22:41:27.562Z,12.61
2022-12-31T22:44:03.502Z,12.89
2022-12-31T22:46:31.491Z,13.04
2022-12-31T22:49:00.451Z,12.85
2022-12-31T22:51:57.075Z,12.76
2022-12-31T22:54:16.007Z,12.80
2022-12-31T22:56:43.006Z,12.89
2022-12-31T22:59:10.328Z,12.88
2022-12-31T23:01:37.831Z,12.82
2022-12-31T23:04:05.305Z,12.74
2022-12-31T23:06:32.828Z,12.64
2022-12-31T23:09:18.225Z,12.61
2022-12-31T23:11:45.260Z,12.57
2022-12-31T23:14:35.714Z,12.58
2022-12-31T23:17:29.577Z,12.56
2022-12-31T23:20:18.806Z,12.63
2022-12-31T23:23:06.177Z,12.43
2022-12-31T23:25:40.034Z,12.24
2022-12-31T23:28:10.455Z,12.14
2022-12-31T23:30:40.026Z,12.11
2022-12-31T23:33:08.921Z,11.94
2022-12-31T23:35:36.010Z,11.80
2022-12-31T23:38:03.038Z,11.78
2022-12-31T23:40:34.558Z,11.73
2022-12-31T23:43:07.571Z,11.76
2022-12-31T23:45:35.621Z,11.78
2022-12-31T23:48:03.198Z,11.81
2022-12-31T23:50:30.330Z,11.71
2022-12-31T23:52:57.322Z,11.73
2022-12-31T23:55:24.465Z,11.69
2022-12-31T23:57:51.457Z,11.73
